Time;durP1;ratioP1;P1;durP2;ratioP2;P2;SDS_P1;SDS_P2;PMS_P1;PMS_P2;Temp;Humidity;BMP_temperature;BMP_pressure;BME280_temperature;BME280_humidity;BME280_pressure;Samples;Min_cycle;Max_cycle;Signal;HPM_P1;HPM_P2
2022/01/29 00:00:54;;;;;;;3.63;2.40;;;16.30;69.50;;;;;;5134611;27;20269;-22
2022/01/29 00:03:20;;;;;;;2.97;2.17;;;16.40;69.50;;;;;;5134741;27;20581;-22
2022/01/29 00:05:46;;;;;;;3.13;2.50;;;16.40;69.30;;;;;;5134029;27;20617;-22
2022/01/29 00:08:12;;;;;;;3.57;2.60;;;16.40;69.20;;;;;;5134565;27;20215;-22
2022/01/29 00:10:38;;;;;;;4.67;2.73;;;16.40;69.20;;;;;;5134412;27;20234;-20
2022/01/29 00:13:04;;;;;;;3.57;2.50;;;16.40;69.10;;;;;;5134233;27;20170;-21
2022/01/29 00:15:29;;;;;;;5.47;2.50;;;16.40;69.00;;;;;;5132904;27;20174;-23
2022/01/29 00:17:55;;;;;;;3.13;2.43;;;16.40;68.90;;;;;;5134162;27;20680;-21
2022/01/29 00:20:21;;;;;;;2.90;2.40;;;16.40;68.80;;;;;;5135387;27;20189;-24
2022/01/29 00:22:47;;;;;;;2.83;2.30;;;16.40;68.70;;;;;;5136076;27;20167;-24
2022/01/29 00:25:12;;;;;;;4.33;2.50;;;16.40;68.70;;;;;;5134840;27;20343;-24
2022/01/29 00:27:39;;;;;;;2.97;2.50;;;16.40;68.50;;;;;;5134678;27;20210;-24
2022/01/29 00:30:09;;;;;;;2.90;2.40;;;16.40;68.40;;;;;;5134212;27;20334;-22
2022/01/29 00:32:36;;;;;;;2.97;2.43;;;16.40;68.40;;;;;;5133586;27;20202;-19
2022/01/29 00:35:02;;;;;;;2.60;2.10;;;16.40;68.20;;;;;;5133652;27;20171;-24
2022/01/29 00:37:28;;;;;;;2.57;2.37;;;16.40;68.20;;;;;;5134172;27;20329;-23
2022/01/29 00:39:55;;;;;;;2.60;2.40;;;16.30;68.10;;;;;;5134665;27;20176;-20
2022/01/29 00:42:21;;;;;;;3.53;2.50;;;16.30;68.10;;;;;;5133821;27;20568;-22
2022/01/29 00:44:47;;;;;;;6.33;2.47;;;16.30;68.00;;;;;;5134484;27;20195;-21
2022/01/29 00:47:13;;;;;;;2.73;2.10;;;16.30;68.00;;;;;;5132368;27;20345;-22
2022/01/29 00:49:40;;;;;;;3.33;2.20;;;16.30;67.90;;;;;;5133089;27;20170;-26
2022/01/29 00:52:05;;;;;;;2.80;2.17;;;16.30;67.80;;;;;;5132547;27;20185;-22
2022/01/29 00:54:31;;;;;;;2.70;2.40;;;16.40;67.80;;;;;;5134588;27;20161;-23
2022/01/29 00:56:57;;;;;;;2.57;2.37;;;16.40;67.70;;;;;;5133706;27;20177;-22
2022/01/29 00:59:23;;;;;;;2.90;2.50;;;16.40;67.50;;;;;;5133198;27;20178;-22
2022/01/29 01:01:49;;;;;;;2.70;2.37;;;16.40;67.40;;;;;;5133060;27;20181;-22
2022/01/29 01:04:14;;;;;;;3.03;2.30;;;16.40;67.20;;;;;;5134387;27;20201;-20
2022/01/29 01:06:40;;;;;;;3.10;2.13;;;16.40;67.10;;;;;;5132015;27;20529;-22
2022/01/29 01:09:07;;;;;;;3.53;2.23;;;16.40;67.00;;;;;;5133703;27;20171;-24
2022/01/29 01:11:33;;;;;;;3.80;2.67;;;16.40;67.40;;;;;;5134845;27;20166;-21
2022/01/29 01:13:59;;;;;;;4.07;2.50;;;16.40;66.50;;;;;;5135262;27;20194;-23
2022/01/29 01:16:24;;;;;;;3.23;2.10;;;16.50;66.40;;;;;;5133369;27;20182;-22
2022/01/29 01:18:50;;;;;;;2.77;2.53;;;16.50;66.30;;;;;;5132721;27;20311;-23
2022/01/29 01:21:16;;;;;;;3.60;2.60;;;16.50;66.00;;;;;;5132102;27;20189;-20
2022/01/29 01:23:42;;;;;;;2.80;2.30;;;16.50;65.90;;;;;;5133015;27;20278;-23
2022/01/29 01:26:07;;;;;;;3.03;2.53;;;16.50;65.70;;;;;;5133414;27;20217;-22
2022/01/29 01:28:33;;;;;;;3.93;2.63;;;16.50;65.50;;;;;;5133558;27;20171;-22
2022/01/29 01:30:59;;;;;;;3.10;2.50;;;16.50;65.30;;;;;;5133945;27;20173;-22
2022/01/29 01:33:25;;;;;;;2.93;2.37;;;16.50;65.10;;;;;;5134251;27;20223;-23
2022/01/29 01:35:55;;;;;;;3.10;2.40;;;16.50;65.00;;;;;;5134728;27;20164;-23
2022/01/29 01:38:27;;;;;;;3.10;2.60;;;16.50;64.90;;;;;;5133840;27;20181;-23
2022/01/29 01:40:58;;;;;;;3.57;2.73;;;16.50;64.80;;;;;;5133683;27;20178;-22
2022/01/29 01:43:24;;;;;;;2.93;2.43;;;16.50;64.70;;;;;;5131406;27;20271;-21
2022/01/29 01:45:49;;;;;;;3.27;2.60;;;16.50;64.70;;;;;;5132016;27;20218;-23
2022/01/29 01:48:15;;;;;;;3.73;2.47;;;16.50;64.40;;;;;;5132997;27;20439;-22
2022/01/29 01:50:42;;;;;;;3.40;2.60;;;16.50;64.40;;;;;;5132331;27;20196;-20
2022/01/29 01:53:08;;;;;;;3.63;2.50;;;16.50;64.30;;;;;;5132254;27;20187;-23
2022/01/29 01:55:34;;;;;;;3.90;2.83;;;16.50;64.20;;;;;;5132116;27;20275;-24
2022/01/29 01:58:00;;;;;;;3.60;2.40;;;16.50;64.20;;;;;;5131326;27;20248;-21
2022/01/29 02:00:27;;;;;;;3.20;2.60;;;16.60;64.20;;;;;;5133405;27;20177;-23
2022/01/29 02:02:54;;;;;;;3.03;2.70;;;16.50;64.00;;;;;;5130689;27;20179;-23
2022/01/29 02:05:20;;;;;;;3.47;2.43;;;16.60;64.00;;;;;;5134660;27;20498;-24
2022/01/29 02:07:46;;;;;;;3.07;2.47;;;16.50;63.80;;;;;;5133117;27;20635;-22
2022/01/29 02:10:13;;;;;;;3.43;2.60;;;16.50;63.80;;;;;;5132765;27;20206;-22
2022/01/29 02:12:50;;;;;;;3.20;2.90;;;16.50;63.80;;;;;;5133261;27;20393;-20
2022/01/29 02:15:18;;;;;;;3.60;2.43;;;16.50;63.70;;;;;;5132418;27;20403;-23
2022/01/29 02:17:45;;;;;;;3.40;2.40;;;16.50;63.50;;;;;;5134477;27;20544;-20
2022/01/29 02:20:12;;;;;;;2.90;2.50;;;16.50;63.50;;;;;;5132777;27;20281;-22
2022/01/29 02:22:43;;;;;;;3.60;2.60;;;16.50;63.50;;;;;;5131885;28;20167;-23
2022/01/29 02:25:31;;;;;;;2.70;2.43;;;16.50;63.50;;;;;;5133520;27;20629;-22
2022/01/29 02:28:04;;;;;;;3.13;2.37;;;16.50;63.50;;;;;;5133784;27;20263;-22
2022/01/29 02:30:32;;;;;;;3.07;2.10;;;16.50;63.50;;;;;;5133445;27;20411;-21
2022/01/29 02:32:59;;;;;;;2.97;2.20;;;16.50;63.50;;;;;;5132569;27;20173;-21
2022/01/29 02:35:27;;;;;;;3.43;2.33;;;16.50;63.50;;;;;;5133441;27;20256;-23
2022/01/29 02:37:54;;;;;;;2.83;2.20;;;16.50;63.50;;;;;;5133977;27;20183;-22
2022/01/29 02:40:21;;;;;;;3.37;2.37;;;16.50;63.40;;;;;;5132443;27;20181;-22
2022/01/29 02:42:47;;;;;;;3.10;2.27;;;16.50;63.30;;;;;;5134151;27;20438;-22
2022/01/29 02:45:13;;;;;;;2.50;2.30;;;16.50;63.30;;;;;;5133756;27;20610;-23
2022/01/29 02:47:39;;;;;;;3.03;2.40;;;16.50;63.40;;;;;;5131400;27;20209;-23
2022/01/29 02:50:04;;;;;;;2.80;2.50;;;16.50;63.40;;;;;;5133499;27;20274;-23
2022/01/29 02:52:30;;;;;;;3.03;2.30;;;16.50;63.50;;;;;;5131950;27;20207;-21
2022/01/29 02:54:56;;;;;;;2.87;2.43;;;16.50;63.50;;;;;;5133914;27;20167;-21
2022/01/29 02:57:22;;;;;;;2.23;2.03;;;16.50;63.40;;;;;;5134005;27;20177;-22
2022/01/29 02:59:49;;;;;;;2.63;2.33;;;16.50;63.30;;;;;;5133329;27;20231;-23
2022/01/29 03:02:15;;;;;;;3.10;2.60;;;16.50;63.30;;;;;;5132012;27;20273;-23
2022/01/29 03:04:40;;;;;;;2.87;2.40;;;16.50;63.40;;;;;;5130540;27;20184;-23
2022/01/29 03:07:06;;;;;;;2.63;2.20;;;16.40;63.40;;;;;;5132492;27;20543;-24
2022/01/29 03:09:32;;;;;;;3.10;2.40;;;16.40;63.40;;;;;;5130357;27;20166;-21
2022/01/29 03:11:58;;;;;;;2.43;2.10;;;16.40;63.30;;;;;;5136662;27;20195;-21
2022/01/29 03:14:24;;;;;;;2.50;2.30;;;16.40;63.40;;;;;;5136277;27;20276;-23
2022/01/29 03:16:51;;;;;;;3.50;2.50;;;16.40;63.40;;;;;;5135529;27;20174;-21
2022/01/29 03:19:17;;;;;;;3.00;2.60;;;16.40;63.40;;;;;;5136563;27;20420;-23
2022/01/29 03:21:42;;;;;;;2.57;1.97;;;16.40;63.30;;;;;;5135012;27;20178;-23
2022/01/29 03:24:08;;;;;;;3.20;2.00;;;16.40;63.30;;;;;;5134916;27;20204;-21
2022/01/29 03:26:34;;;;;;;2.80;2.00;;;16.40;63.40;;;;;;5136019;27;20535;-22
2022/01/29 03:28:59;;;;;;;3.50;2.10;;;16.40;63.30;;;;;;5137064;27;20164;-21
2022/01/29 03:31:26;;;;;;;2.60;2.37;;;16.40;63.30;;;;;;5136666;27;20185;-20
2022/01/29 03:33:53;;;;;;;3.37;2.40;;;16.40;63.20;;;;;;5137019;27;20163;-22
2022/01/29 03:36:19;;;;;;;3.23;2.10;;;16.40;63.20;;;;;;5136144;27;20633;-20
2022/01/29 03:38:45;;;;;;;2.87;2.13;;;16.40;63.20;;;;;;5136968;27;20168;-21
2022/01/29 03:41:13;;;;;;;2.27;1.80;;;16.40;63.20;;;;;;5136234;27;20172;-22
2022/01/29 03:43:46;;;;;;;2.70;1.90;;;16.40;63.20;;;;;;5136058;27;20264;-22
2022/01/29 03:46:13;;;;;;;2.47;2.00;;;16.40;63.10;;;;;;5135342;27;20244;-22
2022/01/29 03:48:39;;;;;;;2.73;2.30;;;16.40;63.00;;;;;;5136256;27;20166;-23
2022/01/29 03:51:05;;;;;;;2.70;2.00;;;16.40;63.00;;;;;;5136511;27;20403;-21
2022/01/29 03:53:30;;;;;;;3.33;2.30;;;16.40;63.00;;;;;;5137001;27;20160;-22
2022/01/29 03:55:56;;;;;;;2.53;2.27;;;16.40;62.90;;;;;;5135341;27;20182;-23
2022/01/29 03:58:22;;;;;;;3.50;2.20;;;16.40;62.90;;;;;;5135289;27;20431;-23
2022/01/29 04:00:47;;;;;;;2.53;2.13;;;16.40;62.80;;;;;;5137312;27;20263;-22
2022/01/29 04:03:13;;;;;;;2.30;2.03;;;16.40;62.80;;;;;;5135122;27;20227;-21
2022/01/29 04:05:39;;;;;;;2.70;2.13;;;16.40;62.80;;;;;;5136153;27;20232;-22
2022/01/29 04:08:12;;;;;;;2.60;2.20;;;16.40;62.80;;;;;;5135391;27;20229;-22
2022/01/29 04:10:38;;;;;;;3.00;2.17;;;16.40;62.90;;;;;;5134352;27;20170;-22
2022/01/29 04:13:04;;;;;;;2.63;2.00;;;16.40;62.90;;;;;;5136348;27;20183;-24
2022/01/29 04:15:30;;;;;;;2.73;2.00;;;16.40;62.90;;;;;;5135851;27;20169;-22
2022/01/29 04:17:55;;;;;;;2.83;2.13;;;16.40;62.80;;;;;;5135760;27;20229;-21
2022/01/29 04:20:21;;;;;;;2.83;2.27;;;16.40;62.80;;;;;;5136249;27;20189;-22
2022/01/29 04:22:47;;;;;;;3.27;2.00;;;16.40;62.80;;;;;;5134850;27;20637;-21
2022/01/29 04:25:13;;;;;;;3.40;2.20;;;16.40;62.80;;;;;;5135545;27;20171;-25
2022/01/29 04:27:42;;;;;;;2.40;2.00;;;16.40;62.80;;;;;;5135581;27;20212;-22
2022/01/29 04:30:24;;;;;;;1.90;1.70;;;16.40;62.60;;;;;;5135340;27;20170;-20
2022/01/29 04:35:16;;;;;;;2.00;1.80;;;16.40;62.60;;;;;;5136890;27;20170;-23
2022/01/29 04:37:41;;;;;;;2.57;2.07;;;16.40;62.60;;;;;;5135898;27;20174;-24
2022/01/29 04:40:08;;;;;;;2.43;1.90;;;16.40;62.60;;;;;;5134650;27;20174;-22
2022/01/29 04:42:33;;;;;;;2.10;1.77;;;16.30;62.60;;;;;;5134187;27;20266;-21
2022/01/29 04:44:59;;;;;;;2.27;1.80;;;16.30;62.70;;;;;;5135325;27;20191;-23
2022/01/29 04:47:25;;;;;;;2.20;2.00;;;16.30;62.60;;;;;;5133603;27;20571;-21
2022/01/29 04:49:51;;;;;;;2.23;2.00;;;16.30;62.60;;;;;;5134301;27;20200;-19
2022/01/29 04:52:16;;;;;;;2.33;1.90;;;16.30;62.70;;;;;;5133977;27;20163;-20
2022/01/29 04:54:42;;;;;;;2.00;1.70;;;16.30;62.70;;;;;;5135369;27;20249;-25
2022/01/29 04:57:08;;;;;;;1.60;1.50;;;16.30;62.70;;;;;;5134199;27;20514;-21
2022/01/29 04:59:33;;;;;;;1.73;1.60;;;16.30;62.70;;;;;;5135909;27;20172;-21
2022/01/29 05:01:59;;;;;;;1.93;1.70;;;16.30;62.70;;;;;;5135339;27;20190;-20
2022/01/29 05:04:25;;;;;;;2.33;1.93;;;16.30;62.80;;;;;;5133431;27;20178;-23
2022/01/29 05:06:50;;;;;;;2.53;1.63;;;16.30;62.80;;;;;;5134504;27;20458;-24
2022/01/29 05:09:16;;;;;;;2.10;1.90;;;16.30;62.90;;;;;;5133850;27;20170;-21
2022/01/29 05:11:46;;;;;;;2.80;1.73;;;16.20;63.00;;;;;;5134701;27;20166;-21
2022/01/29 05:14:21;;;;;;;1.70;1.60;;;16.20;63.20;;;;;;5134472;27;20198;-23
2022/01/29 05:27:25;;;;;;;1.70;1.60;;;16.10;63.90;;;;;;5135663;27;20208;-20
2022/01/29 05:29:50;;;;;;;1.80;1.60;;;16.00;64.10;;;;;;5135126;27;20165;-24
2022/01/29 05:32:16;;;;;;;1.53;1.43;;;16.00;64.20;;;;;;5135371;27;20169;-22
2022/01/29 05:34:42;;;;;;;1.80;1.50;;;16.00;64.30;;;;;;5133923;27;20470;-20
2022/01/29 05:37:08;;;;;;;1.50;1.40;;;16.00;64.50;;;;;;5133952;27;20233;-19
2022/01/29 05:39:33;;;;;;;2.20;1.67;;;16.40;62.90;;;;;;5134538;27;20205;-21
2022/01/29 05:42:00;;;;;;;1.60;1.50;;;17.60;58.20;;;;;;5134736;27;20205;-23
2022/01/29 05:44:26;;;;;;;1.50;1.40;;;19.00;54.60;;;;;;5133753;27;20171;-22
2022/01/29 05:46:52;;;;;;;1.53;1.40;;;20.10;51.50;;;;;;5132594;27;20310;-24
2022/01/29 05:49:18;;;;;;;1.40;1.30;;;20.60;50.20;;;;;;5133784;27;20268;-20
2022/01/29 05:51:44;;;;;;;1.60;1.30;;;20.80;49.50;;;;;;5134175;27;20449;-22
2022/01/29 05:54:09;;;;;;;1.50;1.40;;;20.90;49.10;;;;;;5134533;27;20169;-23
2022/01/29 05:56:36;;;;;;;1.77;1.57;;;21.00;48.80;;;;;;5133200;27;20470;-22
2022/01/29 05:59:02;;;;;;;1.77;1.30;;;21.10;48.50;;;;;;5133060;27;20674;-22
2022/01/29 06:01:28;;;;;;;1.73;1.40;;;20.90;48.60;;;;;;5133912;27;20272;-24
2022/01/29 06:03:53;;;;;;;1.40;1.30;;;20.80;48.50;;;;;;5133133;27;20161;-24
2022/01/29 06:06:19;;;;;;;1.50;1.40;;;20.70;48.60;;;;;;5133216;27;20487;-21
2022/01/29 06:08:45;;;;;;;2.00;1.50;;;20.50;48.90;;;;;;5132684;27;20169;-23
2022/01/29 06:11:11;;;;;;;1.40;1.30;;;20.40;49.30;;;;;;5132857;27;20474;-22
2022/01/29 06:13:37;;;;;;;1.33;1.23;;;20.10;49.40;;;;;;5134463;27;20524;-21
2022/01/29 06:16:02;;;;;;;1.40;1.30;;;20.00;49.60;;;;;;5133481;27;20247;-21
2022/01/29 06:18:29;;;;;;;1.33;1.23;;;19.80;50.00;;;;;;5133178;27;20249;-22
2022/01/29 06:20:57;;;;;;;1.30;1.20;;;19.50;50.40;;;;;;5133829;27;20170;-24
2022/01/29 06:23:30;;;;;;;1.40;1.30;;;19.20;50.90;;;;;;5133336;27;20172;-20
2022/01/29 06:26:01;;;;;;;1.33;1.20;;;19.10;51.30;;;;;;5132299;27;20216;-23
2022/01/29 06:28:27;;;;;;;1.40;1.30;;;18.90;51.70;;;;;;5135001;27;20298;-22
2022/01/29 06:30:53;;;;;;;1.40;1.30;;;18.70;52.20;;;;;;5133577;27;20173;-19
2022/01/29 06:33:19;;;;;;;1.40;1.30;;;18.50;52.70;;;;;;5132982;27;20181;-22
2022/01/29 06:35:45;;;;;;;1.47;1.20;;;18.30;53.20;;;;;;5133886;27;20191;-22
2022/01/29 06:38:12;;;;;;;1.47;1.37;;;18.10;53.70;;;;;;5132742;27;20566;-24
2022/01/29 06:40:39;;;;;;;1.53;1.43;;;17.90;54.30;;;;;;5133497;28;20518;-21
2022/01/29 06:43:05;;;;;;;1.30;1.20;;;17.90;54.80;;;;;;5133364;27;20172;-22
2022/01/29 06:45:35;;;;;;;1.40;1.30;;;17.70;55.20;;;;;;5136191;27;20200;-22
2022/01/29 06:48:01;;;;;;;1.20;1.10;;;17.60;55.70;;;;;;5136528;27;20243;-21
2022/01/29 06:50:27;;;;;;;1.50;1.30;;;17.50;56.10;;;;;;5136545;27;20199;-21
2022/01/29 06:52:53;;;;;;;1.80;1.30;;;17.40;56.50;;;;;;5137203;27;20442;-25
2022/01/29 06:55:20;;;;;;;1.30;1.10;;;17.30;56.90;;;;;;5136794;27;20176;-23
2022/01/29 06:57:46;;;;;;;1.30;1.20;;;17.20;57.20;;;;;;5136944;27;20216;-20
2022/01/29 07:00:12;;;;;;;1.60;1.30;;;17.10;57.50;;;;;;5137356;27;20200;-24
2022/01/29 07:02:38;;;;;;;1.40;1.30;;;17.00;57.80;;;;;;5138100;27;20179;-22
2022/01/29 07:05:07;;;;;;;1.80;1.40;;;17.00;58.10;;;;;;5132893;27;20179;-23
2022/01/29 07:07:32;;;;;;;1.30;1.20;;;16.90;58.30;;;;;;5135440;27;20203;-22
2022/01/29 07:09:58;;;;;;;1.47;1.37;;;16.80;58.50;;;;;;5135579;27;20170;-23
2022/01/29 07:12:25;;;;;;;1.40;1.30;;;16.80;58.80;;;;;;5135502;27;20179;-23
2022/01/29 07:14:51;;;;;;;1.60;1.50;;;16.80;59.00;;;;;;5136994;27;20212;-23
2022/01/29 07:17:18;;;;;;;1.60;1.50;;;16.70;59.20;;;;;;5137116;27;20508;-22
2022/01/29 07:19:47;;;;;;;1.60;1.50;;;16.70;59.40;;;;;;5137821;27;20193;-22
2022/01/29 07:22:12;;;;;;;1.53;1.43;;;16.60;59.50;;;;;;5137491;27;20500;-22
2022/01/29 07:24:39;;;;;;;1.50;1.40;;;16.50;59.70;;;;;;5136566;27;20541;-20
2022/01/29 07:27:05;;;;;;;1.50;1.40;;;16.50;59.90;;;;;;5136827;27;20204;-22
2022/01/29 07:29:33;;;;;;;1.87;1.40;;;16.50;60.00;;;;;;5135796;27;20167;-24
2022/01/29 07:32:00;;;;;;;1.40;1.30;;;16.40;60.30;;;;;;5136551;27;20163;-24
2022/01/29 07:34:26;;;;;;;1.57;1.40;;;16.40;60.60;;;;;;5136680;27;20552;-23
2022/01/29 07:36:53;;;;;;;2.33;1.50;;;16.50;60.60;;;;;;5136112;27;20255;-23
2022/01/29 07:39:20;;;;;;;2.90;1.40;;;16.60;60.20;;;;;;5134495;27;20171;-21
2022/01/29 07:41:47;;;;;;;2.23;1.77;;;16.80;59.50;;;;;;5135882;27;20269;-22
2022/01/29 07:44:14;;;;;;;1.50;1.40;;;17.10;58.70;;;;;;5135306;27;20668;-22
2022/01/29 07:46:40;;;;;;;1.93;1.43;;;17.50;57.10;;;;;;5134055;27;20234;-20
2022/01/29 07:49:06;;;;;;;2.43;1.47;;;17.80;56.10;;;;;;5132248;27;20199;-24
2022/01/29 07:51:32;;;;;;;2.57;1.30;;;18.10;55.20;;;;;;5135511;27;20228;-20
2022/01/29 07:53:58;;;;;;;1.50;1.33;;;18.30;54.40;;;;;;5133889;27;20619;-22
2022/01/29 07:56:24;;;;;;;1.63;1.40;;;18.70;53.50;;;;;;5134621;27;20172;-23
2022/01/29 07:58:51;;;;;;;1.97;1.23;;;19.00;52.70;;;;;;5132980;27;20630;-23
2022/01/29 08:01:17;;;;;;;2.50;1.30;;;19.00;52.40;;;;;;5134970;27;20177;-20
2022/01/29 08:03:50;;;;;;;1.63;1.53;;;19.00;52.40;;;;;;5134044;27;20184;-20
2022/01/29 08:06:23;;;;;;;2.30;1.40;;;19.00;52.40;;;;;;5133425;27;20284;-19
2022/01/29 08:08:53;;;;;;;1.40;1.30;;;18.90;52.50;;;;;;5132463;27;20415;-23
2022/01/29 08:11:19;;;;;;;2.93;1.37;;;18.70;52.90;;;;;;5133782;27;20498;-19
2022/01/29 08:13:48;;;;;;;1.60;1.30;;;18.50;53.20;;;;;;5133506;27;20578;-23
2022/01/29 08:16:14;;;;;;;2.40;1.33;;;18.40;53.50;;;;;;5134558;27;20177;-20
2022/01/29 08:18:43;;;;;;;1.57;1.47;;;18.20;54.00;;;;;;5133464;27;20427;-21
2022/01/29 08:21:15;;;;;;;2.80;1.50;;;18.00;54.40;;;;;;5134603;27;20305;-21
2022/01/29 08:23:41;;;;;;;1.73;1.43;;;17.80;55.00;;;;;;5129619;27;20172;-24
2022/01/29 08:26:08;;;;;;;1.40;1.30;;;17.60;55.60;;;;;;5133019;27;20553;-22
2022/01/29 08:28:34;;;;;;;2.70;1.60;;;17.50;56.20;;;;;;5134137;27;20160;-21
2022/01/29 08:31:00;;;;;;;2.33;1.30;;;17.30;56.70;;;;;;5133852;27;20173;-22
2022/01/29 08:33:25;;;;;;;1.87;1.40;;;17.20;57.10;;;;;;5133994;27;20235;-22
2022/01/29 08:35:52;;;;;;;1.83;1.53;;;17.10;57.50;;;;;;5132052;27;20234;-22
2022/01/29 08:38:19;;;;;;;1.60;1.50;;;17.00;57.80;;;;;;5133486;27;20174;-22
2022/01/29 08:40:44;;;;;;;2.20;1.53;;;17.00;58.10;;;;;;5133621;27;20171;-21
2022/01/29 08:43:10;;;;;;;1.77;1.50;;;16.90;58.50;;;;;;5133918;27;20221;-23
2022/01/29 08:45:36;;;;;;;2.87;1.50;;;16.80;58.80;;;;;;5133251;27;20188;-20
2022/01/29 08:48:02;;;;;;;1.70;1.43;;;16.70;59.00;;;;;;5133304;27;20242;-24
2022/01/29 08:50:28;;;;;;;2.17;1.80;;;16.70;59.30;;;;;;5133482;27;20201;-23
2022/01/29 08:52:53;;;;;;;2.70;1.33;;;16.60;59.50;;;;;;5132770;27;20197;-23
2022/01/29 08:55:19;;;;;;;1.60;1.33;;;16.60;59.90;;;;;;5133044;27;20204;-21
2022/01/29 08:57:45;;;;;;;2.10;1.40;;;16.50;59.80;;;;;;5132530;27;20168;-21
2022/01/29 09:00:12;;;;;;;1.40;1.30;;;16.50;60.60;;;;;;5131967;27;20289;-23
2022/01/29 09:02:38;;;;;;;3.30;1.70;;;16.50;61.40;;;;;;5131590;27;20175;-23
2022/01/29 09:05:05;;;;;;;1.47;1.30;;;16.50;62.10;;;;;;5131482;27;20180;-23
2022/01/29 09:07:31;;;;;;;1.70;1.40;;;16.50;62.80;;;;;;5132453;27;20206;-22
2022/01/29 09:09:57;;;;;;;2.23;1.33;;;16.70;62.80;;;;;;5131556;27;20170;-22
2022/01/29 09:12:23;;;;;;;2.50;1.57;;;17.00;61.80;;;;;;5131061;27;20169;-21
2022/01/29 09:14:49;;;;;;;2.53;1.43;;;17.20;61.00;;;;;;5131804;27;20303;-20
2022/01/29 09:17:15;;;;;;;2.97;1.60;;;17.40;60.70;;;;;;5131915;27;20199;-22
2022/01/29 09:19:40;;;;;;;2.40;1.60;;;17.50;60.30;;;;;;5131573;27;20576;-22
2022/01/29 09:22:06;;;;;;;2.40;1.67;;;17.80;59.10;;;;;;5131799;27;20200;-19
2022/01/29 09:24:32;;;;;;;3.33;1.50;;;18.00;58.30;;;;;;5131426;27;20198;-21
2022/01/29 09:26:59;;;;;;;2.53;1.73;;;18.20;57.80;;;;;;5131389;27;20204;-23
2022/01/29 09:29:25;;;;;;;2.00;1.70;;;18.30;57.50;;;;;;5130071;27;20256;-19
2022/01/29 09:31:50;;;;;;;2.57;1.67;;;18.30;57.50;;;;;;5131540;27;20397;-22
2022/01/29 09:34:16;;;;;;;2.60;1.90;;;18.20;57.50;;;;;;5131313;27;20452;-22
2022/01/29 09:36:42;;;;;;;1.80;1.70;;;18.20;57.70;;;;;;5131625;27;20170;-22
2022/01/29 09:39:09;;;;;;;3.47;1.60;;;18.00;58.20;;;;;;5130665;27;20224;-19
2022/01/29 09:41:37;;;;;;;2.23;1.63;;;17.80;58.70;;;;;;5131623;27;20172;-22
2022/01/29 09:44:03;;;;;;;2.40;1.63;;;17.70;59.20;;;;;;5131350;27;20327;-20
2022/01/29 09:46:30;;;;;;;3.37;1.80;;;17.50;59.70;;;;;;5132186;27;20207;-19
2022/01/29 09:48:56;;;;;;;2.03;1.70;;;17.40;60.50;;;;;;5132134;27;20202;-20
2022/01/29 09:51:22;;;;;;;3.13;1.73;;;17.30;61.40;;;;;;5130568;27;20383;-22
2022/01/29 09:53:48;;;;;;;3.77;1.63;;;17.30;62.10;;;;;;5131175;27;20181;-22
2022/01/29 09:56:15;;;;;;;5.10;1.50;;;17.10;62.60;;;;;;5132336;27;20257;-24
2022/01/29 09:58:42;;;;;;;2.37;1.50;;;17.10;63.30;;;;;;5130754;27;20180;-22
2022/01/29 10:01:08;;;;;;;2.63;1.90;;;17.00;63.70;;;;;;5130901;27;20172;-22
2022/01/29 10:03:34;;;;;;;12.43;2.83;;;16.90;68.70;;;;;;5129920;27;20354;-20
2022/01/29 10:16:09;;;;;;;6.50;2.00;;;16.90;75.70;;;;;;5130131;27;20482;-22
2022/01/29 10:28:41;;;;;;;4.93;2.03;;;16.60;75.60;;;;;;5134145;27;20186;-21
2022/01/29 10:31:08;;;;;;;2.60;2.10;;;16.60;75.30;;;;;;5133238;27;20178;-23
2022/01/29 10:33:35;;;;;;;3.17;1.90;;;16.60;75.30;;;;;;5132533;27;20179;-24
2022/01/29 10:36:04;;;;;;;5.27;1.70;;;16.70;74.80;;;;;;5132590;27;20561;-22
2022/01/29 10:38:48;;;;;;;2.97;1.70;;;16.80;73.80;;;;;;5132555;27;20175;-19
2022/01/29 10:41:23;;;;;;;3.77;1.70;;;17.10;72.20;;;;;;5134042;27;20346;-22
2022/01/29 10:43:58;;;;;;;3.60;1.90;;;17.30;70.10;;;;;;5132663;27;20198;-21
2022/01/29 10:46:31;;;;;;;4.03;1.63;;;17.50;68.40;;;;;;5133786;27;20583;-22
2022/01/29 10:48:58;;;;;;;6.03;1.77;;;17.80;65.70;;;;;;5134129;27;20173;-21
2022/01/29 10:51:24;;;;;;;2.63;1.60;;;18.00;64.00;;;;;;5133910;27;20218;-22
2022/01/29 10:53:54;;;;;;;4.50;1.60;;;18.20;62.80;;;;;;5133689;27;20188;-20
2022/01/29 10:56:23;;;;;;;2.40;1.60;;;18.30;61.70;;;;;;5132663;27;20268;-22
2022/01/29 10:58:52;;;;;;;6.93;1.60;;;18.20;61.30;;;;;;5132719;27;20161;-22
2022/01/29 11:01:21;;;;;;;2.57;1.53;;;18.10;61.80;;;;;;5133695;27;20170;-22
2022/01/29 11:03:50;;;;;;;3.73;1.33;;;18.00;62.30;;;;;;5132312;27;20199;-21
2022/01/29 11:06:21;;;;;;;4.37;1.80;;;18.00;62.50;;;;;;5131337;27;20544;-22
2022/01/29 11:08:47;;;;;;;2.40;1.40;;;17.80;63.00;;;;;;5132675;27;20178;-21
2022/01/29 11:11:14;;;;;;;5.80;1.50;;;17.70;63.70;;;;;;5131477;27;20530;-24
2022/01/29 11:13:42;;;;;;;5.30;1.70;;;17.60;64.20;;;;;;5132917;27;20174;-21
2022/01/29 11:16:08;;;;;;;2.10;1.50;;;17.50;64.80;;;;;;5132065;27;20189;-21
2022/01/29 11:18:34;;;;;;;4.70;1.60;;;17.40;65.50;;;;;;5130409;27;20312;-22
2022/01/29 11:21:02;;;;;;;2.73;1.30;;;17.40;66.20;;;;;;5129277;27;20181;-21
2022/01/29 11:23:29;;;;;;;3.93;1.50;;;17.30;66.70;;;;;;5132685;27;20180;-23
2022/01/29 11:25:58;;;;;;;5.23;1.70;;;17.20;67.10;;;;;;5131445;27;20198;-21
2022/01/29 11:28:27;;;;;;;2.57;1.40;;;17.20;67.60;;;;;;5131733;27;20306;-23
2022/01/29 11:31:11;;;;;;;2.40;1.30;;;17.10;68.00;;;;;;5130107;27;20330;-23
2022/01/29 11:33:58;;;;;;;1.87;1.50;;;17.00;68.40;;;;;;5131641;27;20172;-22
2022/01/29 11:36:47;;;;;;;3.10;1.53;;;17.00;68.80;;;;;;5131563;27;20184;-23
2022/01/29 11:39:29;;;;;;;2.43;1.30;;;16.90;69.10;;;;;;5118546;27;20660;-20
2022/01/29 11:52:19;;;;;;;2.20;1.00;;;16.70;70.40;;;;;;5130816;27;20262;-22
2022/01/29 11:54:59;;;;;;;2.13;1.40;;;16.70;70.80;;;;;;5132057;27;20236;-22
2022/01/29 11:57:25;;;;;;;1.63;1.20;;;16.70;70.90;;;;;;5132487;27;20164;-21
2022/01/29 11:59:51;;;;;;;1.67;1.40;;;16.70;70.80;;;;;;5130944;27;20176;-19
2022/01/29 12:02:16;;;;;;;1.10;1.00;;;16.70;70.80;;;;;;5130345;27;20211;-19
2022/01/29 12:05:05;;;;;;;2.50;1.37;;;16.80;70.60;;;;;;5131081;27;20167;-21
2022/01/29 12:07:39;;;;;;;1.50;1.30;;;16.80;70.00;;;;;;5131810;27;20198;-21
2022/01/29 12:10:11;;;;;;;2.30;1.30;;;17.00;69.10;;;;;;5129774;27;20233;-22
2022/01/29 12:12:44;;;;;;;3.13;1.30;;;17.20;67.60;;;;;;5130644;27;20157;-21
2022/01/29 12:15:10;;;;;;;2.20;1.10;;;17.50;65.40;;;;;;5129630;27;20171;-23
2022/01/29 12:17:44;;;;;;;1.57;0.90;;;17.70;63.60;;;;;;5130095;27;20176;-20
2022/01/29 12:20:15;;;;;;;1.93;1.20;;;17.90;62.10;;;;;;5130551;27;20180;-22
2022/01/29 12:22:42;;;;;;;2.57;1.10;;;18.10;60.40;;;;;;5131213;27;20268;-22
2022/01/29 12:25:20;;;;;;;1.33;1.10;;;18.30;59.50;;;;;;5128150;27;20454;-22
2022/01/29 12:27:48;;;;;;;2.23;1.10;;;18.30;59.40;;;;;;5131957;27;20292;-22
2022/01/29 12:30:19;;;;;;;1.47;1.00;;;18.40;59.10;;;;;;5130271;27;20375;-21
2022/01/29 12:33:05;;;;;;;1.73;1.10;;;18.30;59.20;;;;;;5129403;27;20173;-22
2022/01/29 12:35:51;;;;;;;1.73;1.00;;;18.30;59.10;;;;;;5130415;27;20185;-20
2022/01/29 12:38:40;;;;;;;1.73;1.10;;;18.30;59.20;;;;;;5128481;27;20237;-22
2022/01/29 12:41:14;;;;;;;1.23;1.13;;;18.20;59.60;;;;;;5129701;27;20432;-23
2022/01/29 12:43:52;;;;;;;1.57;1.20;;;18.00;60.10;;;;;;5130259;27;20164;-23
2022/01/29 12:46:41;;;;;;;1.53;1.13;;;17.80;61.30;;;;;;5130579;27;20230;-21
2022/01/29 12:49:12;;;;;;;1.17;0.93;;;17.70;62.40;;;;;;5129926;27;20416;-22
2022/01/29 12:51:51;;;;;;;2.43;1.20;;;17.60;63.50;;;;;;5128865;27;20257;-22
2022/01/29 12:54:18;;;;;;;1.00;1.00;;;17.40;64.50;;;;;;5129679;27;20188;-22
2022/01/29 12:56:44;;;;;;;1.00;0.90;;;17.30;65.50;;;;;;5129331;27;20180;-21
2022/01/29 12:59:12;;;;;;;1.07;0.80;;;17.20;66.10;;;;;;5130799;27;20232;-21
2022/01/29 13:01:40;;;;;;;0.93;0.93;;;17.20;66.90;;;;;;5131611;27;20179;-24
2022/01/29 13:04:13;;;;;;;0.90;0.90;;;17.10;67.40;;;;;;5129913;27;20593;-21
2022/01/29 13:06:39;;;;;;;2.33;0.90;;;17.00;68.00;;;;;;5111868;27;20194;-21
2022/01/29 13:09:27;;;;;;;1.00;0.87;;;17.00;68.50;;;;;;5130155;27;20163;-23
2022/01/29 13:12:03;;;;;;;1.27;0.90;;;16.90;69.00;;;;;;5127005;27;20556;-24
2022/01/29 13:14:30;;;;;;;1.67;1.00;;;16.80;69.30;;;;;;5128515;27;20233;-23
2022/01/29 13:17:07;;;;;;;1.97;0.90;;;16.80;69.80;;;;;;5129452;27;20549;-23
2022/01/29 13:19:35;;;;;;;1.30;0.73;;;16.80;70.30;;;;;;5129771;27;20170;-22
2022/01/29 13:22:03;;;;;;;2.93;1.00;;;16.70;70.80;;;;;;5128298;27;20438;-21
2022/01/29 13:24:33;;;;;;;0.90;0.90;;;16.70;71.40;;;;;;5111774;27;20197;-24
2022/01/29 13:27:06;;;;;;;1.07;1.00;;;16.70;72.00;;;;;;5129681;27;20566;-23
2022/01/29 13:29:34;;;;;;;1.13;0.87;;;16.70;72.10;;;;;;5129523;27;20201;-22
2022/01/29 13:32:12;;;;;;;1.30;0.80;;;16.70;71.70;;;;;;5128109;27;20173;-23
2022/01/29 13:34:44;;;;;;;1.23;1.07;;;16.80;71.40;;;;;;5132555;27;20756;-24